Terminal Aerodrome Forecast
Issued by NWS Brownsville, TX

Current Version | Previous Version | Text Only | Print | Product List | Glossary On
Versions: 1 2 3 4 5 6 7 8 9 10 11 12 13 14 15
000
FTUS44 KBRO 310531
TAFBRO
TAF
KBRO 310531Z 3106/0106 13004KT P6SM FEW025
     FM311500 15010KT P6SM SCT040
      TEMPO 3116/3120 TSRA BKN030CB
     FM312000 12012G18KT P6SM SCT030 BKN050
     FM010100 13009KT P6SM FEW025=

USA.gov is the U.S. government's official web portal to all federal, state and local government web resources and services.